createdAt,value
2018-12-04T00:01:30.060Z,95023.42
2018-12-04T00:03:58.431Z,95023.41
2018-12-04T00:06:26.668Z,95015.69
2018-12-04T00:08:55.080Z,95029.31
2018-12-04T00:11:23.356Z,95032.50
2018-12-04T00:13:51.856Z,95048.53
2018-12-04T00:16:20.147Z,95035.18
2018-12-04T00:18:48.361Z,95038.65
2018-12-04T00:21:18.312Z,95041.58
2018-12-04T00:23:46.572Z,95044.25
2018-12-04T00:26:14.875Z,95046.39
2018-12-04T00:28:43.164Z,95066.17
2018-12-04T00:31:11.383Z,95059.75
2018-12-04T00:33:39.707Z,95055.20
2018-12-04T00:36:07.970Z,95033.29
2018-12-04T00:38:40.196Z,95057.34
2018-12-04T00:41:08.530Z,95058.95
2018-12-04T00:43:36.780Z,95066.69
2018-12-04T00:46:04.993Z,95058.40
2018-12-04T00:48:33.217Z,95061.89
2018-12-04T00:51:01.528Z,95072.56
2018-12-04T00:53:29.900Z,95065.89
2018-12-04T00:55:58.171Z,95084.84
2018-12-04T00:58:26.559Z,95078.19
2018-12-04T01:00:54.921Z,95078.46
2018-12-04T01:03:23.320Z,95085.94
2018-12-04T01:05:51.588Z,95081.39
2018-12-04T01:08:19.870Z,95095.28
2018-12-04T01:10:48.248Z,95081.65
2018-12-04T01:13:16.535Z,95097.42
2018-12-04T01:15:44.808Z,95097.16
2018-12-04T01:18:13.202Z,95103.56
2018-12-04T01:20:41.437Z,95089.41
2018-12-04T01:23:09.744Z,95114.52
2018-12-04T01:25:38.092Z,95105.69
2018-12-04T01:28:06.463Z,95088.31
2018-12-04T01:30:34.764Z,95096.88
2018-12-04T01:33:03.058Z,95103.25
2018-12-04T01:35:31.521Z,95114.75
2018-12-04T01:37:59.799Z,95101.38
2018-12-04T01:40:28.173Z,95099.80
2018-12-04T01:42:56.557Z,95104.36
2018-12-04T01:45:24.830Z,95098.20
2018-12-04T01:47:53.183Z,95119.81
2018-12-04T01:50:21.524Z,95111.03
2018-12-04T01:52:49.739Z,95107.00
2018-12-04T01:55:18.016Z,95120.88
2018-12-04T01:57:46.400Z,95125.44
2018-12-04T02:00:14.607Z,95120.63
2018-12-04T02:02:42.833Z,95116.06
2018-12-04T02:05:11.118Z,95126.23
2018-12-04T02:07:39.336Z,95112.61
2018-12-04T02:10:07.625Z,95128.09
2018-12-04T02:12:35.953Z,95125.16
2018-12-04T02:15:04.491Z,95128.11
2018-12-04T02:17:32.740Z,95123.55
2018-12-04T02:20:00.983Z,95125.72
2018-12-04T02:22:29.277Z,95128.91
2018-12-04T02:24:57.516Z,95127.59
2018-12-04T02:27:25.795Z,95128.38
2018-12-04T02:29:54.088Z,95126.23
2018-12-04T02:32:22.321Z,95127.01
2018-12-04T02:34:50.627Z,95132.09
2018-12-04T02:37:18.892Z,95137.98
2018-12-04T02:39:47.116Z,95131.60
2018-12-04T02:45:01.619Z,95148.15
2018-12-04T02:47:29.907Z,95140.67
2018-12-04T02:49:58.320Z,95144.63
2018-12-04T02:52:26.610Z,95140.11
2018-12-04T02:54:55.004Z,95144.09
2018-12-04T02:57:23.253Z,95140.60
2018-12-04T02:59:51.496Z,95131.02
2018-12-04T03:02:19.731Z,95137.98
2018-12-04T03:04:48.109Z,95149.99
2018-12-04T03:07:16.474Z,95139.28
2018-12-04T03:09:44.728Z,95156.64
2018-12-04T03:12:13.053Z,95148.90
2018-12-04T03:14:41.268Z,95156.39
2018-12-04T03:17:09.564Z,95159.63
2018-12-04T03:19:37.797Z,95160.14
2018-12-04T03:22:06.134Z,95166.02
2018-12-04T03:24:34.352Z,95173.74
2018-12-04T03:27:02.664Z,95170.56
2018-12-04T03:29:30.883Z,95190.87
2018-12-04T03:31:59.112Z,95177.73
2018-12-04T03:34:27.473Z,95201.77
2018-12-04T03:36:55.879Z,95191.86
2018-12-04T03:39:24.231Z,95191.57
2018-12-04T03:41:52.566Z,95200.70
2018-12-04T03:44:21.027Z,95193.98
2018-12-04T03:46:49.298Z,95194.77
2018-12-04T03:49:17.593Z,95194.45
2018-12-04T03:51:45.900Z,95203.82
2018-12-04T03:54:14.263Z,95195.50
2018-12-04T03:56:42.475Z,95213.38
2018-12-04T03:59:10.705Z,95210.36
2018-12-04T04:01:38.988Z,95218.34
2018-12-04T04:04:07.285Z,95212.47
2018-12-04T04:06:35.709Z,95213.28
2018-12-04T04:09:06.051Z,95208.25
2018-12-04T04:11:34.260Z,95211.40
2018-12-04T04:14:02.587Z,95230.94
2018-12-04T04:16:30.875Z,95208.19
2018-12-04T04:18:59.109Z,95216.70
2018-12-04T04:21:27.424Z,95220.40
2018-12-04T04:23:55.663Z,95215.04
2018-12-04T04:26:23.905Z,95217.44
2018-12-04T04:28:52.241Z,95210.23
2018-12-04T04:31:20.499Z,95210.49
2018-12-04T04:33:48.722Z,95227.21
2018-12-04T04:36:16.977Z,95237.63
2018-12-04T04:38:45.340Z,95233.83
2018-12-04T04:41:13.596Z,95230.30
2018-12-04T04:43:41.812Z,95226.58
2018-12-04T04:46:10.071Z,95238.17
2018-12-04T04:48:38.352Z,95223.80
2018-12-04T04:51:06.587Z,95244.81
2018-12-04T04:53:34.894Z,95241.88
2018-12-04T04:56:03.268Z,95251.27
2018-12-04T04:58:31.543Z,95250.91
2018-12-04T05:00:59.884Z,95255.37
2018-12-04T05:03:28.195Z,95263.38
2018-12-04T05:05:56.483Z,95264.97
2018-12-04T05:08:24.747Z,95271.84
2018-12-04T05:10:53.001Z,95278.02
2018-12-04T05:13:21.239Z,95282.56
2018-12-04T05:15:49.568Z,95284.68
2018-12-04T05:18:17.903Z,95297.73
2018-12-04T05:20:46.241Z,95282.27
2018-12-04T05:23:14.472Z,95278.33
2018-12-04T05:25:42.801Z,95287.90
2018-12-04T05:28:11.019Z,95291.92
2018-12-04T05:30:39.253Z,95299.09
2018-12-04T05:33:07.484Z,95307.92
2018-12-04T05:35:35.910Z,95314.83
2018-12-04T05:38:04.171Z,95309.47
2018-12-04T05:40:32.515Z,95316.62
2018-12-04T05:43:00.766Z,95318.27
2018-12-04T05:45:29.091Z,95317.70
2018-12-04T05:47:57.483Z,95330.53
2018-12-04T05:50:25.743Z,95314.05
2018-12-04T05:53:11.824Z,95330.42
2018-12-04T05:55:40.058Z,95324.52
2018-12-04T05:58:08.425Z,95333.84
2018-12-04T06:00:36.716Z,95340.45
2018-12-04T06:03:05.188Z,95350.57
2018-12-04T06:05:33.414Z,95340.16
2018-12-04T06:08:01.730Z,95349.23
2018-12-04T06:10:29.953Z,95353.01
2018-12-04T06:12:58.212Z,95347.09
2018-12-04T06:15:26.454Z,95348.72
2018-12-04T06:17:54.717Z,95361.47
2018-12-04T06:20:22.927Z,95361.23
2018-12-04T06:22:51.189Z,95363.94
2018-12-04T06:25:19.456Z,95370.02
2018-12-04T06:27:47.749Z,95363.61
2018-12-04T06:30:15.966Z,95372.13
2018-12-04T06:32:44.216Z,95367.16
2018-12-04T06:35:12.490Z,95362.86
2018-12-04T06:37:40.748Z,95367.84
2018-12-04T06:40:08.984Z,95361.14
2018-12-04T06:42:37.294Z,95368.39
2018-12-04T06:45:06.497Z,95366.25
2018-12-04T06:47:34.741Z,95366.21
2018-12-04T06:50:03.568Z,95366.83
2018-12-04T06:52:31.798Z,95376.81
2018-12-04T06:55:00.013Z,95378.73
2018-12-04T06:57:28.235Z,95374.28
2018-12-04T06:59:56.516Z,95378.54
2018-12-04T07:02:24.751Z,95384.36
2018-12-04T07:04:52.967Z,95390.70
2018-12-04T07:07:21.213Z,95387.35
2018-12-04T07:09:49.422Z,95394.73
2018-12-04T07:12:17.688Z,95401.95
2018-12-04T07:14:45.935Z,95409.10
2018-12-04T07:17:14.145Z,95407.84
2018-12-04T07:19:42.390Z,95411.61
2018-12-04T07:22:10.655Z,95422.16
2018-12-04T07:24:38.917Z,95428.30
2018-12-04T07:27:07.156Z,95434.61
2018-12-04T07:29:35.473Z,95446.28
2018-12-04T07:32:03.745Z,95442.62
2018-12-04T07:34:32.075Z,95448.21
2018-12-04T07:37:00.344Z,95452.91
2018-12-04T07:39:28.608Z,95459.50
2018-12-04T07:41:56.852Z,95471.02
2018-12-04T07:44:25.069Z,95467.58
2018-12-04T07:46:53.299Z,95482.17
2018-12-04T07:49:21.516Z,95487.02
2018-12-04T07:51:49.788Z,95493.17
2018-12-04T07:54:18.019Z,95499.81
2018-12-04T07:56:46.257Z,95493.98
2018-12-04T07:59:14.480Z,95505.03
2018-12-04T08:01:42.709Z,95516.78
2018-12-04T08:04:10.965Z,95510.47
2018-12-04T08:06:39.228Z,95526.26
2018-12-04T08:09:07.896Z,95517.37
2018-12-04T08:11:36.240Z,95512.25
2018-12-04T08:14:04.847Z,95521.11
2018-12-04T08:16:34.648Z,95525.08
2018-12-04T08:19:02.928Z,95530.89
2018-12-04T08:21:31.224Z,95533.34
2018-12-04T08:23:59.523Z,95531.48
2018-12-04T08:26:27.773Z,95544.53
2018-12-04T08:28:56.021Z,95552.42
2018-12-04T08:31:24.327Z,95558.50
2018-12-04T08:33:52.594Z,95557.27
2018-12-04T08:36:20.856Z,95560.94
2018-12-04T08:38:49.099Z,95573.53
2018-12-04T08:41:17.351Z,95580.25
2018-12-04T08:43:45.698Z,95583.89
2018-12-04T08:46:13.922Z,95594.69
2018-12-04T08:48:42.145Z,95575.39
2018-12-04T08:51:10.415Z,95595.09
2018-12-04T08:53:38.619Z,95601.80
2018-12-04T08:56:06.863Z,95626.28
2018-12-04T08:58:35.193Z,95631.28
2018-12-04T09:01:03.439Z,95634.42
2018-12-04T09:03:31.647Z,95638.89
2018-12-04T09:08:27.575Z,95656.20
2018-12-04T09:10:55.796Z,95659.26
2018-12-04T09:13:24.049Z,95649.92
2018-12-04T09:15:52.267Z,95673.45
2018-12-04T09:18:20.545Z,95661.80
2018-12-04T09:20:48.854Z,95667.17
2018-12-04T09:23:17.179Z,95670.15
2018-12-04T09:25:45.496Z,95671.18
2018-12-04T09:28:13.816Z,95673.20
2018-12-04T09:30:42.105Z,95694.42
2018-12-04T09:33:10.335Z,95681.08
2018-12-04T09:35:38.657Z,95688.83
2018-12-04T09:38:06.883Z,95689.69
2018-12-04T09:40:35.135Z,95690.72
2018-12-04T09:43:04.278Z,95699.12
2018-12-04T09:45:32.785Z,95701.36
2018-12-04T09:48:01.053Z,95713.45
2018-12-04T09:50:29.276Z,95714.14
2018-12-04T09:52:57.551Z,95720.09
2018-12-04T09:55:25.779Z,95721.62
2018-12-04T09:57:54.004Z,95717.06
2018-12-04T10:00:22.318Z,95728.83
2018-12-04T10:02:50.591Z,95746.38
2018-12-04T10:05:18.809Z,95730.75
2018-12-04T10:07:47.042Z,95731.01
2018-12-04T10:10:15.257Z,95723.75
2018-12-04T10:12:43.485Z,95719.34
2018-12-04T10:15:11.902Z,95723.47
2018-12-04T10:17:40.113Z,95724.03
2018-12-04T10:20:09.839Z,95712.72
2018-12-04T10:22:38.096Z,95699.41
2018-12-04T10:25:06.492Z,95715.84
2018-12-04T10:27:34.791Z,95734.67
2018-12-04T10:30:03.496Z,95733.63
2018-12-04T10:32:31.712Z,95731.23
2018-12-04T10:34:59.970Z,95743.03
2018-12-04T10:37:28.183Z,95736.06
2018-12-04T10:39:56.397Z,95730.27
2018-12-04T10:42:24.616Z,95733.28
2018-12-04T10:44:52.835Z,95731.44
2018-12-04T10:47:21.077Z,95727.75
2018-12-04T10:49:49.310Z,95734.30
2018-12-04T10:52:17.554Z,95751.03
2018-12-04T10:54:45.756Z,95735.85
2018-12-04T10:57:14.073Z,95743.13
2018-12-04T10:59:42.318Z,95756.88
2018-12-04T11:02:15.916Z,95748.72
2018-12-04T11:04:44.125Z,95758.47
2018-12-04T11:07:12.336Z,95744.98
2018-12-04T11:09:40.552Z,95752.09
2018-12-04T11:12:23.437Z,95752.50
2018-12-04T11:14:51.677Z,95752.28
2018-12-04T11:17:19.906Z,95756.30
2018-12-04T11:19:48.214Z,95764.72
2018-12-04T11:22:16.441Z,95764.65
2018-12-04T11:24:44.739Z,95761.81
2018-12-04T11:27:13.015Z,95769.47
2018-12-04T11:29:41.257Z,95759.25
2018-12-04T11:32:10.089Z,95771.41
2018-12-04T11:34:38.323Z,95774.62
2018-12-04T11:37:06.625Z,95779.71
2018-12-04T11:39:34.861Z,95783.31
2018-12-04T11:42:03.235Z,95780.32
2018-12-04T11:44:31.471Z,95774.54
2018-12-04T11:46:59.685Z,95781.06
2018-12-04T11:49:27.906Z,95785.42
2018-12-04T11:51:56.132Z,95790.72
2018-12-04T11:54:24.368Z,95794.27
2018-12-04T11:56:52.597Z,95795.53
2018-12-04T11:59:20.835Z,95809.50
2018-12-04T12:01:49.059Z,95811.86
2018-12-04T12:04:17.299Z,95808.36
2018-12-04T12:06:45.536Z,95803.59
2018-12-04T12:09:13.804Z,95806.62
2018-12-04T12:11:42.191Z,95812.11
2018-12-04T12:14:10.434Z,95821.19
2018-12-04T12:16:38.635Z,95832.21
2018-12-04T12:19:06.983Z,95831.41
2018-12-04T12:21:35.203Z,95836.80
2018-12-04T12:24:03.421Z,95840.91
2018-12-04T12:26:31.929Z,95839.70
2018-12-04T12:29:00.316Z,95846.59
2018-12-04T12:31:28.519Z,95839.20
2018-12-04T12:33:56.775Z,95845.11
2018-12-04T12:36:25.045Z,95847.87
2018-12-04T12:38:53.309Z,95845.98
2018-12-04T12:41:21.524Z,95849.98
2018-12-04T12:43:49.761Z,95857.31
2018-12-04T12:46:18.107Z,95857.33
2018-12-04T12:48:46.420Z,95860.50
2018-12-04T12:51:14.649Z,95865.39
2018-12-04T12:53:42.984Z,95868.06
2018-12-04T12:56:11.233Z,95865.14
2018-12-04T12:58:39.509Z,95868.36
2018-12-04T13:01:07.793Z,95880.83
2018-12-04T13:03:36.082Z,95878.48
2018-12-04T13:06:04.350Z,95892.17
2018-12-04T13:08:32.624Z,95895.81
2018-12-04T13:11:00.931Z,95904.75
2018-12-04T13:13:29.151Z,95901.77
2018-12-04T13:15:57.520Z,95903.32
2018-12-04T13:18:25.974Z,95904.30
2018-12-04T13:20:54.283Z,95899.34
2018-12-04T13:23:22.579Z,95906.53
2018-12-04T13:25:50.902Z,95911.80
2018-12-04T13:28:19.346Z,95913.84
2018-12-04T13:30:47.572Z,95916.88
2018-12-04T13:33:15.885Z,95918.00
2018-12-04T13:35:44.134Z,95916.19
2018-12-04T13:38:12.453Z,95925.72
2018-12-04T13:40:40.775Z,95920.36
2018-12-04T13:43:09.156Z,95929.08
2018-12-04T13:45:37.394Z,95935.50
2018-12-04T13:48:05.667Z,95929.41
2018-12-04T13:50:34.043Z,95938.73
2018-12-04T13:53:02.432Z,95946.42
2018-12-04T13:55:30.777Z,95942.03
2018-12-04T13:57:59.075Z,95949.89
2018-12-04T14:00:27.326Z,95944.59
2018-12-04T14:02:55.568Z,95955.38
2018-12-04T14:05:23.964Z,95955.62
2018-12-04T14:07:52.305Z,95962.45
2018-12-04T14:10:20.655Z,95966.51
2018-12-04T14:12:48.968Z,95974.32
2018-12-04T14:15:17.415Z,95975.47
2018-12-04T14:17:45.901Z,95987.36
2018-12-04T14:20:14.182Z,95993.34
2018-12-04T14:22:42.495Z,95991.81
2018-12-04T14:25:10.800Z,96012.36
2018-12-04T14:27:39.124Z,96005.58
2018-12-04T14:30:10.450Z,96015.95
2018-12-04T14:32:38.811Z,96018.69
2018-12-04T14:35:07.261Z,96028.34
2018-12-04T14:37:35.537Z,96032.95
2018-12-04T14:40:04.451Z,96037.49
2018-12-04T14:42:33.689Z,96044.73
2018-12-04T14:45:02.039Z,96056.74
2018-12-04T14:47:30.377Z,96051.74
2018-12-04T14:49:58.659Z,96049.08
2018-12-04T14:52:26.943Z,96048.32
2018-12-04T14:54:55.223Z,96050.86
2018-12-04T14:57:23.618Z,96056.45
2018-12-04T14:59:51.837Z,96071.38
2018-12-04T15:02:20.179Z,96072.85
2018-12-04T15:04:48.536Z,96077.73
2018-12-04T15:07:16.927Z,96076.84
2018-12-04T15:09:45.214Z,96069.33
2018-12-04T15:12:13.559Z,96081.70
2018-12-04T15:14:41.817Z,96087.42
2018-12-04T15:17:10.078Z,96085.92
2018-12-04T15:19:38.369Z,96087.83
2018-12-04T15:22:06.675Z,96087.70
2018-12-04T15:24:34.902Z,96089.88
2018-12-04T15:27:03.236Z,96092.36
2018-12-04T15:29:31.468Z,96092.27
2018-12-04T15:31:59.813Z,96095.25
2018-12-04T15:34:28.119Z,96099.02
2018-12-04T15:36:56.853Z,96105.94
2018-12-04T15:39:25.467Z,96110.09
2018-12-04T15:41:53.804Z,96114.80
2018-12-04T15:44:22.079Z,96117.89
2018-12-04T15:46:50.306Z,96120.63
2018-12-04T15:49:18.625Z,96114.75
2018-12-04T15:51:46.888Z,96111.83
2018-12-04T15:54:15.194Z,96123.19
2018-12-04T15:56:43.491Z,96125.51
2018-12-04T15:59:11.710Z,96121.59
2018-12-04T16:01:40.047Z,96121.36
2018-12-04T16:04:08.403Z,96121.36
2018-12-04T16:06:36.641Z,96133.41
2018-12-04T16:09:07.083Z,96146.33
2018-12-04T16:11:35.308Z,96149.97
2018-12-04T16:14:03.640Z,96155.13
2018-12-04T16:16:31.872Z,96155.06
2018-12-04T16:19:00.107Z,96156.23
2018-12-04T16:21:28.397Z,96151.97
2018-12-04T16:23:56.692Z,96160.00
2018-12-04T16:26:24.946Z,96163.25
2018-12-04T16:28:53.171Z,96169.62
2018-12-04T16:31:21.385Z,96177.09
2018-12-04T16:33:49.644Z,96183.36
2018-12-04T16:36:17.945Z,96185.82
2018-12-04T16:38:46.297Z,96192.91
2018-12-04T16:41:14.595Z,96200.97
2018-12-04T16:43:42.849Z,96206.96
2018-12-04T16:46:11.144Z,96204.22
2018-12-04T16:48:39.373Z,96209.31
2018-12-04T16:51:07.907Z,96209.16
2018-12-04T16:53:36.140Z,96206.96
2018-12-04T16:56:04.539Z,96210.57
2018-12-04T16:58:32.763Z,96216.77
2018-12-04T17:01:01.018Z,96212.18
2018-12-04T17:03:29.384Z,96215.08
2018-12-04T17:05:57.624Z,96221.58
2018-12-04T17:08:25.898Z,96221.81
2018-12-04T17:10:54.223Z,96216.64
2018-12-04T17:13:22.435Z,96222.39
2018-12-04T17:15:50.738Z,96230.77
2018-12-04T17:18:18.972Z,96228.61
2018-12-04T17:20:47.193Z,96235.34
2018-12-04T17:23:15.436Z,96231.93
2018-12-04T17:25:43.627Z,96230.06
2018-12-04T17:28:11.937Z,96229.86
2018-12-04T17:30:40.419Z,96228.84
2018-12-04T17:33:08.708Z,96234.75
2018-12-04T17:35:36.919Z,96252.48
2018-12-04T17:38:05.247Z,96259.08
2018-12-04T17:40:33.530Z,96266.06
2018-12-04T17:43:02.032Z,96268.97
2018-12-04T17:45:30.283Z,96275.97
2018-12-04T17:47:58.527Z,96281.72
2018-12-04T17:50:26.917Z,96283.36
2018-12-04T17:52:55.124Z,96287.34
2018-12-04T17:55:23.353Z,96302.02
2018-12-04T17:57:51.710Z,96306.01
2018-12-04T18:00:19.979Z,96308.98
2018-12-04T18:02:48.215Z,96305.09
2018-12-04T18:05:16.427Z,96313.50
2018-12-04T18:07:44.685Z,96314.38
2018-12-04T18:10:13.043Z,96315.09
2018-12-04T18:12:41.319Z,96319.16
2018-12-04T18:15:09.595Z,96325.91
2018-12-04T18:17:37.824Z,96317.93
2018-12-04T18:20:06.107Z,96328.69
2018-12-04T18:22:34.460Z,96332.52
2018-12-04T18:25:02.734Z,96342.77
2018-12-04T18:27:30.950Z,96343.41
2018-12-04T18:29:59.159Z,96335.43
2018-12-04T18:32:27.550Z,96342.30
2018-12-04T18:34:55.851Z,96351.73
2018-12-04T18:37:24.268Z,96363.73
2018-12-04T18:39:52.720Z,96359.74
2018-12-04T18:42:21.080Z,96360.69
2018-12-04T18:44:49.291Z,96365.44
2018-12-04T18:47:17.608Z,96366.25
2018-12-04T18:49:46.483Z,96362.52
2018-12-04T18:52:14.768Z,96365.81
2018-12-04T18:54:42.984Z,96365.45
2018-12-04T18:57:11.369Z,96365.33
2018-12-04T18:59:39.609Z,96375.81
2018-12-04T19:02:07.873Z,96376.61
2018-12-04T19:04:37.135Z,96373.02
2018-12-04T19:07:05.538Z,96384.92
2018-12-04T19:09:33.937Z,96386.00
2018-12-04T19:12:02.156Z,96393.09
2018-12-04T19:14:30.387Z,96386.95
2018-12-04T19:16:58.605Z,96389.23
2018-12-04T19:19:26.863Z,96388.15
2018-12-04T19:21:56.045Z,96391.44
2018-12-04T19:24:24.356Z,96386.63
2018-12-04T19:26:52.614Z,96394.42
2018-12-04T19:29:20.851Z,96401.47
2018-12-04T19:31:50.201Z,96400.33
2018-12-04T19:34:18.453Z,96401.25
2018-12-04T19:36:46.683Z,96406.47
2018-12-04T19:39:14.930Z,96405.52
2018-12-04T19:41:43.193Z,96398.88
2018-12-04T19:44:11.431Z,96401.28
2018-12-04T19:46:39.847Z,96402.33
2018-12-04T19:49:08.055Z,96403.31
2018-12-04T19:51:36.705Z,96403.11
2018-12-04T19:54:05.017Z,96404.34
2018-12-04T19:56:33.220Z,96412.64
2018-12-04T19:59:01.491Z,96416.98
2018-12-04T20:01:29.875Z,96415.94
2018-12-04T20:03:58.168Z,96418.94
2018-12-04T20:06:26.392Z,96418.74
2018-12-04T20:08:55.323Z,96428.48
2018-12-04T20:11:23.602Z,96430.09
2018-12-04T20:13:51.939Z,96425.39
2018-12-04T20:16:20.209Z,96432.69
2018-12-04T20:18:48.451Z,96441.57
2018-12-04T20:21:16.856Z,96442.86
2018-12-04T20:23:45.223Z,96445.45
2018-12-04T20:26:13.706Z,96441.67
2018-12-04T20:28:42.014Z,96444.73
2018-12-04T20:31:10.245Z,96444.34
2018-12-04T20:33:38.614Z,96440.66
2018-12-04T20:36:06.890Z,96437.06
2018-12-04T20:38:35.117Z,96433.48
2018-12-04T20:41:03.404Z,96438.62
2018-12-04T20:43:31.955Z,96444.06
2018-12-04T20:46:05.904Z,96447.30
2018-12-04T20:48:31.069Z,96450.47
2018-12-04T20:50:59.299Z,96454.25
2018-12-04T20:53:27.872Z,96463.89
2018-12-04T20:55:56.141Z,96462.30
2018-12-04T20:58:24.455Z,96474.79
2018-12-04T21:00:52.722Z,96475.74
2018-12-04T21:03:20.932Z,96480.13
2018-12-04T21:05:49.201Z,96480.95
2018-12-04T21:08:18.094Z,96472.97
2018-12-04T21:10:46.573Z,96467.95
2018-12-04T21:13:15.016Z,96465.00
2018-12-04T21:15:43.334Z,96458.36
2018-12-04T21:18:11.564Z,96459.80
2018-12-04T21:20:39.856Z,96467.55
2018-12-04T21:23:08.172Z,96477.19
2018-12-04T21:25:36.390Z,96473.73
2018-12-04T21:28:10.390Z,96471.96
2018-12-04T21:30:44.229Z,96462.86
2018-12-04T21:33:17.879Z,96475.03
2018-12-04T21:35:51.607Z,96475.05
2018-12-04T21:38:25.469Z,96484.78
2018-12-04T21:46:51.700Z,96498.34
2018-12-04T21:49:19.957Z,96498.45
2018-12-04T21:51:48.266Z,96505.11
2018-12-04T21:54:16.480Z,96502.66
2018-12-04T21:56:44.702Z,96509.30
2018-12-04T21:59:12.941Z,96511.52
2018-12-04T22:01:41.973Z,96523.07
2018-12-04T22:04:10.211Z,96519.59
2018-12-04T22:06:38.467Z,96521.97
2018-12-04T22:09:07.391Z,96520.09
2018-12-04T22:11:35.676Z,96525.02
2018-12-04T22:14:03.958Z,96531.88
2018-12-04T22:16:32.443Z,96517.87
2018-12-04T22:19:01.011Z,96536.15
2018-12-04T22:21:29.255Z,96523.19
2018-12-04T22:23:58.144Z,96534.71
2018-12-04T22:26:26.447Z,96541.85
2018-12-04T22:28:54.668Z,96536.54
2018-12-04T22:31:22.939Z,96532.67
2018-12-04T22:33:51.301Z,96534.53
2018-12-04T22:36:19.552Z,96532.48
2018-12-04T22:38:47.956Z,96534.20
2018-12-04T22:41:16.252Z,96543.00
2018-12-04T22:43:44.448Z,96548.31
2018-12-04T22:46:12.847Z,96562.09
2018-12-04T22:48:41.176Z,96560.77
2018-12-04T22:51:09.448Z,96559.88
2018-12-04T22:53:37.707Z,96557.83
2018-12-04T22:56:05.988Z,96559.55
2018-12-04T22:58:34.268Z,96558.33
2018-12-04T23:01:03.728Z,96563.03
2018-12-04T23:03:32.004Z,96555.67
2018-12-04T23:06:00.259Z,96558.44
2018-12-04T23:08:28.538Z,96564.64
2018-12-04T23:10:56.759Z,96565.19
2018-12-04T23:13:24.970Z,96566.29
2018-12-04T23:15:53.406Z,96562.63
2018-12-04T23:18:21.688Z,96558.72
2018-12-04T23:20:50.235Z,96550.67
2018-12-04T23:23:18.596Z,96546.59
2018-12-04T23:25:46.849Z,96537.58
2018-12-04T23:28:15.054Z,96532.91
2018-12-04T23:30:43.370Z,96529.93
2018-12-04T23:33:11.693Z,96525.84
2018-12-04T23:35:39.900Z,96523.91
2018-12-04T23:38:08.112Z,96528.29
2018-12-04T23:40:36.323Z,96524.41
2018-12-04T23:43:04.563Z,96523.52
2018-12-04T23:45:32.779Z,96530.04
2018-12-04T23:48:01.071Z,96538.52
2018-12-04T23:50:29.389Z,96548.12
2018-12-04T23:52:57.651Z,96549.83
2018-12-04T23:55:25.878Z,96546.17
2018-12-04T23:57:54.116Z,96552.80
